createdAt,value
2018-11-01T00:01:40.358Z,100445.59
2018-11-01T00:04:14.140Z,100440.87
2018-11-01T00:06:47.605Z,100428.83
2018-11-01T00:09:21.293Z,100425.79
2018-11-01T00:11:55.268Z,100429.34
2018-11-01T00:14:28.810Z,100420.02
2018-11-01T00:17:03.284Z,100414.86
2018-11-01T00:19:36.802Z,100414.86
2018-11-01T00:22:10.575Z,100433.66
2018-11-01T00:24:44.283Z,100433.66
2018-11-01T00:27:17.725Z,100440.11
2018-11-01T00:29:51.381Z,100420.93
2018-11-01T00:32:25.591Z,100420.93
2018-11-01T00:34:59.531Z,100422.33
2018-11-01T00:37:33.283Z,100422.66
2018-11-01T00:40:08.937Z,100411.14
2018-11-01T00:42:42.857Z,100407.08
2018-11-01T00:45:17.505Z,100403.53
2018-11-01T00:47:51.271Z,100403.53
2018-11-01T00:50:24.778Z,100404.38
2018-11-01T00:52:58.390Z,100405.25
2018-11-01T00:55:32.592Z,100418.41
2018-11-01T00:58:06.294Z,100424.48
2018-11-01T01:00:39.775Z,100420.42
2018-11-01T01:03:13.511Z,100394.52
2018-11-01T01:05:47.279Z,100394.52
2018-11-01T01:08:20.763Z,100405.72
2018-11-01T01:10:55.039Z,100393.88
2018-11-01T01:13:28.610Z,100393.88
2018-11-01T01:16:02.378Z,100389.11
2018-11-01T01:18:35.798Z,100392.33
2018-11-01T01:21:09.589Z,100384.34
2018-11-01T01:23:43.309Z,100384.34
2018-11-01T01:26:16.761Z,100395.21
2018-11-01T01:28:50.474Z,100399.22
2018-11-01T01:31:24.030Z,100399.22
2018-11-01T01:33:58.490Z,100396.84
2018-11-01T01:36:31.803Z,100392.80
2018-11-01T01:39:05.246Z,100391.11
2018-11-01T01:41:40.570Z,100394.46
2018-11-01T01:44:14.500Z,100389.23
2018-11-01T01:46:48.059Z,100385.36
2018-11-01T01:49:21.746Z,100373.52
2018-11-01T01:51:55.368Z,100368.11
2018-11-01T01:54:29.284Z,100356.21
2018-11-01T01:57:03.362Z,100360.83
2018-11-01T01:59:36.994Z,100365.73
2018-11-01T02:02:10.733Z,100370.30
2018-11-01T02:04:44.500Z,100374.16
2018-11-01T02:07:18.277Z,100377.20
2018-11-01T02:09:51.808Z,100376.50
2018-11-01T02:12:26.513Z,100368.38
2018-11-01T02:15:00.059Z,100368.38
2018-11-01T02:17:34.284Z,100380.73
2018-11-01T02:20:10.278Z,100388.99
2018-11-01T02:22:44.482Z,100386.28
2018-11-01T02:25:18.597Z,100380.03
2018-11-01T02:28:09.609Z,100374.26
2018-11-01T02:30:43.276Z,100363.95
2018-11-01T02:33:17.283Z,100361.89
2018-11-01T02:35:50.755Z,100369.53
2018-11-01T02:38:24.832Z,100351.08
2018-11-01T02:40:58.512Z,100349.07
2018-11-01T02:43:32.269Z,100349.07
2018-11-01T02:46:05.819Z,100347.39
2018-11-01T02:48:38.551Z,100347.39
2018-11-01T02:51:11.403Z,100345.19
2018-11-01T02:53:45.353Z,100338.23
2018-11-01T02:56:19.582Z,100339.59
2018-11-01T02:58:53.627Z,100349.39
2018-11-01T03:01:27.301Z,100340.10
2018-11-01T03:04:00.765Z,100333.02
2018-11-01T03:06:34.516Z,100319.97
2018-11-01T03:09:20.283Z,100319.97
2018-11-01T03:11:53.772Z,100322.52
2018-11-01T03:14:27.509Z,100325.69
2018-11-01T03:17:01.342Z,100325.69
2018-11-01T03:19:35.284Z,100328.41
2018-11-01T03:22:09.493Z,100324.35
2018-11-01T03:24:42.985Z,100331.29
2018-11-01T03:27:16.594Z,100325.03
2018-11-01T03:29:50.373Z,100326.72
2018-11-01T03:32:24.087Z,100338.05
2018-11-01T03:34:57.589Z,100333.62
2018-11-01T03:37:31.731Z,100337.20
2018-11-01T03:40:05.588Z,100327.04
2018-11-01T03:42:39.777Z,100331.10
2018-11-01T03:45:14.640Z,100299.11
2018-11-01T03:47:48.531Z,100299.11
2018-11-01T03:50:22.269Z,100303.04
2018-11-01T03:52:56.261Z,100291.19
2018-11-01T03:55:29.809Z,100291.52
2018-11-01T03:58:02.919Z,100290.53
2018-11-01T04:00:34.382Z,100293.57
2018-11-01T04:03:08.049Z,100295.09
2018-11-01T04:05:41.790Z,100296.27
2018-11-01T04:08:15.505Z,100281.34
2018-11-01T04:10:49.263Z,100281.34
2018-11-01T04:13:22.770Z,100282.23
2018-11-01T04:15:56.512Z,100277.95
2018-11-01T04:18:30.518Z,100277.95
2018-11-01T04:21:04.512Z,100285.92
2018-11-01T04:23:38.495Z,100274.13
2018-11-01T04:26:12.607Z,100276.65
2018-11-01T04:28:46.349Z,100294.41
2018-11-01T04:31:20.096Z,100280.38
2018-11-01T04:33:54.286Z,100285.59
2018-11-01T04:36:27.997Z,100289.33
2018-11-01T04:39:01.607Z,100293.05
2018-11-01T04:41:35.286Z,100291.52
2018-11-01T04:44:09.845Z,100294.59
2018-11-01T04:46:44.285Z,100282.06
2018-11-01T04:49:18.036Z,100282.06
2018-11-01T04:51:51.592Z,100294.22
2018-11-01T04:54:25.485Z,100279.72
2018-11-01T04:56:59.812Z,100266.34
2018-11-01T04:59:32.715Z,100266.66
2018-11-01T05:02:05.966Z,100262.61
2018-11-01T05:04:39.648Z,100256.87
2018-11-01T05:07:13.351Z,100248.56
2018-11-01T05:09:46.761Z,100256.31
2018-11-01T05:12:19.567Z,100256.68
2018-11-01T05:14:53.340Z,100255.33
2018-11-01T05:17:27.056Z,100264.28
2018-11-01T05:20:00.607Z,100253.97
2018-11-01T05:22:34.279Z,100233.33
2018-11-01T05:25:08.288Z,100222.52
2018-11-01T05:27:42.283Z,100215.06
2018-11-01T05:30:16.061Z,100212.72
2018-11-01T05:32:49.609Z,100208.30
2018-11-01T05:35:23.585Z,100214.08
2018-11-01T05:37:57.306Z,100219.63
2018-11-01T05:40:30.770Z,100227.73
2018-11-01T05:43:04.771Z,100215.89
2018-11-01T05:45:40.292Z,100211.19
2018-11-01T05:48:13.805Z,100211.19
2018-11-01T05:50:47.548Z,100198.28
2018-11-01T05:53:21.295Z,100198.28
2018-11-01T05:55:54.781Z,100220.28
2018-11-01T05:58:27.446Z,100222.32
2018-11-01T06:01:02.519Z,100228.91
2018-11-01T06:03:36.290Z,100218.45
2018-11-01T06:06:09.791Z,100221.82
2018-11-01T06:08:44.850Z,100201.87
2018-11-01T06:11:18.500Z,100204.42
2018-11-01T06:13:52.286Z,100204.42
2018-11-01T06:16:25.842Z,100221.53
2018-11-01T06:19:00.390Z,100229.55
2018-11-01T06:21:34.289Z,100229.55
2018-11-01T06:24:07.817Z,100252.81
2018-11-01T06:26:40.622Z,100246.38
2018-11-01T06:29:13.453Z,100257.05
2018-11-01T06:31:47.286Z,100257.39
2018-11-01T06:34:28.975Z,100248.43
2018-11-01T06:37:03.388Z,100235.56
2018-11-01T06:39:37.052Z,100240.13
2018-11-01T06:42:10.787Z,100230.49
2018-11-01T06:44:44.643Z,100211.92
2018-11-01T06:47:18.292Z,100211.92
2018-11-01T06:49:52.279Z,100212.91
2018-11-01T06:52:25.777Z,100218.52
2018-11-01T06:54:59.527Z,100184.34
2018-11-01T06:57:33.359Z,100184.34
2018-11-01T07:00:07.350Z,100176.27
2018-11-01T07:02:41.773Z,100194.68
2018-11-01T07:05:15.520Z,100186.05
2018-11-01T07:07:49.293Z,100186.05
2018-11-01T07:10:22.822Z,100183.39
2018-11-01T07:12:56.595Z,100168.52
2018-11-01T07:15:30.306Z,100168.52
2018-11-01T07:18:04.823Z,100170.89
2018-11-01T07:20:38.452Z,100156.34
2018-11-01T07:23:12.302Z,100156.34
2018-11-01T07:25:46.410Z,100149.44
2018-11-01T07:28:20.564Z,100151.30
2018-11-01T07:30:54.296Z,100152.80
2018-11-01T07:33:27.847Z,100145.38
2018-11-01T07:36:01.534Z,100124.26
2018-11-01T07:38:35.292Z,100124.26
2018-11-01T07:41:09.293Z,100124.95
2018-11-01T07:43:43.693Z,100136.97
2018-11-01T07:46:17.381Z,100144.91
2018-11-01T07:48:51.005Z,100149.32
2018-11-01T07:51:24.599Z,100140.84
2018-11-01T07:53:58.359Z,100135.80
2018-11-01T07:56:32.018Z,100137.99
2018-11-01T07:59:05.607Z,100127.68
2018-11-01T08:01:39.291Z,100127.20
2018-11-01T08:04:12.814Z,100128.73
2018-11-01T08:06:46.504Z,100109.63
2018-11-01T08:09:20.291Z,100109.63
2018-11-01T08:11:54.387Z,100117.78
2018-11-01T08:14:28.004Z,100122.02
2018-11-01T08:17:01.810Z,100117.77
2018-11-01T08:19:35.567Z,100126.75
2018-11-01T08:22:09.906Z,100126.75
2018-11-01T08:24:42.357Z,100130.48
2018-11-01T08:27:15.805Z,100121.83
2018-11-01T08:29:49.547Z,100118.59
2018-11-01T08:32:23.542Z,100118.59
2018-11-01T08:34:57.300Z,100147.88
2018-11-01T08:37:31.296Z,100158.52
2018-11-01T08:40:05.301Z,100149.23
2018-11-01T08:42:38.990Z,100147.36
2018-11-01T08:45:15.300Z,100128.94
2018-11-01T08:47:48.806Z,100121.99
2018-11-01T08:50:22.626Z,100114.89
2018-11-01T08:52:56.368Z,100114.89
2018-11-01T08:55:30.384Z,100114.22
2018-11-01T08:58:04.281Z,100106.80
2018-11-01T09:00:38.388Z,100104.77
2018-11-01T09:03:12.629Z,100106.64
2018-11-01T09:05:46.295Z,100106.84
2018-11-01T09:08:20.308Z,100117.83
2018-11-01T09:10:54.074Z,100092.97
2018-11-01T09:13:27.769Z,100067.61
2018-11-01T09:16:01.629Z,100057.09
2018-11-01T09:18:35.296Z,100057.09
2018-11-01T09:21:08.836Z,100088.23
2018-11-01T09:23:42.529Z,100081.28
2018-11-01T09:26:16.309Z,100081.28
2018-11-01T09:28:49.810Z,100091.28
2018-11-01T09:31:23.526Z,100104.52
2018-11-01T09:33:57.500Z,100104.52
2018-11-01T09:36:31.532Z,100089.97
2018-11-01T09:39:05.749Z,100088.97
2018-11-01T09:41:39.866Z,100090.32
2018-11-01T09:44:13.491Z,100095.20
2018-11-01T09:46:47.596Z,100095.20
2018-11-01T09:49:20.798Z,100080.98
2018-11-01T09:51:53.444Z,100074.88
2018-11-01T09:54:26.258Z,100078.95
2018-11-01T09:56:59.795Z,100066.27
2018-11-01T09:59:32.976Z,100064.55
2018-11-01T10:02:06.924Z,100063.71
2018-11-01T10:04:39.377Z,100059.30
2018-11-01T10:07:13.513Z,100057.44
2018-11-01T10:09:47.297Z,100054.20
2018-11-01T10:12:21.290Z,100043.89
2018-11-01T10:14:54.768Z,100032.73
2018-11-01T10:17:28.847Z,100023.59
2018-11-01T10:20:02.772Z,100023.59
2018-11-01T10:22:36.439Z,100001.08
2018-11-01T10:25:12.097Z,100001.08
2018-11-01T10:27:45.724Z,100022.05
2018-11-01T10:30:22.813Z,100025.59
2018-11-01T10:32:56.550Z,100008.69
2018-11-01T10:35:30.366Z,100008.69
2018-11-01T10:38:04.286Z,100014.08
2018-11-01T10:40:38.315Z,100014.76
2018-11-01T10:43:11.829Z,100004.62
2018-11-01T10:45:45.563Z,100000.56
2018-11-01T10:48:19.402Z,100000.56
2018-11-01T10:50:53.056Z,100007.81
2018-11-01T10:53:26.611Z,100002.92
2018-11-01T10:56:00.301Z,99998.85
2018-11-01T10:58:33.815Z,100000.72
2018-11-01T11:01:25.080Z,100006.98
2018-11-01T11:03:58.624Z,100006.98
2018-11-01T11:06:32.471Z,99997.84
2018-11-01T11:09:07.491Z,100004.30
2018-11-01T11:11:41.622Z,99998.88
2018-11-01T11:14:15.331Z,100006.13
2018-11-01T11:16:48.959Z,100003.94
2018-11-01T11:19:22.571Z,100008.84
2018-11-01T11:21:56.074Z,100015.45
2018-11-01T11:24:29.608Z,100016.65
2018-11-01T11:27:03.336Z,100014.61
2018-11-01T11:29:36.996Z,100014.80
2018-11-01T11:32:10.592Z,100012.42
2018-11-01T11:34:44.597Z,99999.55
2018-11-01T11:39:46.742Z,100009.69
2018-11-01T11:42:19.571Z,100009.87
2018-11-01T11:44:52.654Z,100006.33
2018-11-01T11:47:25.612Z,100003.94
2018-11-01T11:49:58.667Z,99999.88
2018-11-01T11:52:31.778Z,99997.36
2018-11-01T11:55:04.337Z,99996.48
2018-11-01T11:57:36.966Z,99970.13
2018-11-01T12:00:17.627Z,99970.13
2018-11-01T12:05:32.613Z,99976.50
2018-11-01T12:08:05.542Z,99967.39
2018-11-01T12:10:39.299Z,99961.98
2018-11-01T12:13:12.499Z,99966.55
2018-11-01T12:15:45.530Z,99961.63
2018-11-01T12:18:18.650Z,99958.08
2018-11-01T12:20:51.782Z,99959.95
2018-11-01T12:23:24.425Z,99951.81
2018-11-01T12:25:57.003Z,99947.91
2018-11-01T12:28:30.353Z,99947.43
2018-11-01T12:31:03.473Z,99929.47
2018-11-01T12:33:36.560Z,99909.48
2018-11-01T12:36:09.750Z,99905.73
2018-11-01T12:38:42.648Z,99901.35
2018-11-01T12:41:15.697Z,99893.22
2018-11-01T12:43:48.658Z,99885.42
2018-11-01T12:46:21.651Z,99912.34
2018-11-01T12:48:54.630Z,99906.77
2018-11-01T12:51:27.611Z,99909.48
2018-11-01T12:54:01.294Z,99904.06
2018-11-01T12:56:34.565Z,99895.58
2018-11-01T12:59:08.284Z,99893.06
2018-11-01T13:01:41.534Z,99897.61
2018-11-01T13:04:15.303Z,99890.35
2018-11-01T13:06:48.516Z,99874.94
2018-11-01T13:09:21.495Z,99862.39
2018-11-01T13:11:54.547Z,99855.62
2018-11-01T13:14:27.831Z,99851.55
2018-11-01T13:17:01.301Z,99851.55
2018-11-01T13:19:34.750Z,99851.55
2018-11-01T13:22:08.494Z,99867.52
2018-11-01T13:24:41.832Z,99867.52
2018-11-01T13:27:15.537Z,99866.13
2018-11-01T13:29:49.269Z,99866.13
2018-11-01T13:32:23.318Z,99852.91
2018-11-01T13:34:57.020Z,99836.34
2018-11-01T13:37:30.484Z,99826.18
2018-11-01T13:40:04.218Z,99826.18
2018-11-01T13:42:37.908Z,99837.84
2018-11-01T13:45:10.576Z,99839.72
2018-11-01T13:47:44.426Z,99845.66
2018-11-01T13:50:17.787Z,99837.01
2018-11-01T13:52:52.042Z,99841.91
2018-11-01T13:55:25.567Z,99841.91
2018-11-01T13:57:59.291Z,99846.14
2018-11-01T14:00:32.774Z,99839.56
2018-11-01T14:03:06.698Z,99861.03
2018-11-01T14:05:40.390Z,99861.03
2018-11-01T14:08:14.647Z,99871.55
2018-11-01T14:10:48.284Z,99877.30
2018-11-01T14:13:21.877Z,99876.45
2018-11-01T14:15:55.489Z,99886.45
2018-11-01T14:18:28.820Z,99886.45
2018-11-01T14:21:02.627Z,99905.09
2018-11-01T14:23:36.341Z,99905.09
2018-11-01T14:26:09.801Z,99901.19
2018-11-01T14:28:43.670Z,99895.77
2018-11-01T14:31:17.376Z,99895.77
2018-11-01T14:33:50.791Z,99878.52
2018-11-01T14:36:23.612Z,99868.69
2018-11-01T14:38:56.389Z,99881.39
2018-11-01T14:41:30.139Z,99888.16
2018-11-01T14:44:04.370Z,99886.29
2018-11-01T14:46:38.295Z,99875.66
2018-11-01T14:49:11.801Z,99870.72
2018-11-01T14:51:45.897Z,99854.34
2018-11-01T14:54:21.053Z,99859.72
2018-11-01T14:56:54.556Z,99859.72
2018-11-01T14:59:28.571Z,99857.02
2018-11-01T15:02:00.800Z,99848.05
2018-11-01T15:04:34.481Z,99836.89
2018-11-01T15:07:08.284Z,99836.89
2018-11-01T15:09:41.789Z,99850.08
2018-11-01T15:12:15.491Z,99852.63
2018-11-01T15:14:49.268Z,99852.63
2018-11-01T15:17:22.809Z,99849.92
2018-11-01T15:19:56.968Z,99842.83
2018-11-01T15:22:30.584Z,99842.83
2018-11-01T15:25:04.298Z,99861.47
2018-11-01T15:27:38.376Z,99872.78
2018-11-01T15:30:17.195Z,99863.30
2018-11-01T15:32:50.948Z,99862.82
2018-11-01T15:35:23.313Z,99861.31
2018-11-01T15:37:56.807Z,99864.50
2018-11-01T15:40:30.646Z,99860.62
2018-11-01T15:43:04.326Z,99860.62
2018-11-01T15:45:37.773Z,99855.38
2018-11-01T15:48:11.563Z,99865.20
2018-11-01T15:50:45.357Z,99865.20
2018-11-01T15:53:19.058Z,99870.95
2018-11-01T15:55:52.599Z,99881.97
2018-11-01T15:58:26.369Z,99878.07
2018-11-01T16:01:00.056Z,99868.27
2018-11-01T16:03:34.335Z,99871.81
2018-11-01T16:06:07.822Z,99875.20
2018-11-01T16:08:41.550Z,99876.23
2018-11-01T16:11:15.275Z,99876.23
2018-11-01T16:13:49.020Z,99878.07
2018-11-01T16:16:22.759Z,99883.68
2018-11-01T16:18:56.478Z,99887.89
2018-11-01T16:21:30.511Z,99887.89
2018-11-01T16:24:04.282Z,99901.95
2018-11-01T16:26:37.774Z,99898.92
2018-11-01T16:29:11.453Z,99908.20
2018-11-01T16:31:44.783Z,99908.20
2018-11-01T16:34:18.489Z,99910.55
2018-11-01T16:36:51.813Z,99910.55
2018-11-01T16:39:25.973Z,99926.16
2018-11-01T16:41:59.580Z,99926.16
2018-11-01T16:44:33.055Z,99931.89
2018-11-01T16:47:06.576Z,99927.31
2018-11-01T16:49:41.050Z,99923.77
2018-11-01T16:52:14.629Z,99916.64
2018-11-01T16:54:48.654Z,99913.94
2018-11-01T16:57:22.330Z,99919.03
2018-11-01T16:59:57.290Z,99927.82
2018-11-01T17:02:31.351Z,99920.55
2018-11-01T17:05:04.802Z,99927.82
2018-11-01T17:07:38.514Z,99924.60
2018-11-01T17:10:14.647Z,99924.60
2018-11-01T17:12:48.390Z,99921.57
2018-11-01T17:15:22.388Z,99916.31
2018-11-01T17:17:55.777Z,99924.79
2018-11-01T17:20:30.278Z,99913.12
2018-11-01T17:23:04.290Z,99913.12
2018-11-01T17:25:37.803Z,99916.99
2018-11-01T17:28:11.790Z,99904.83
2018-11-01T17:30:45.629Z,99914.63
2018-11-01T17:33:19.280Z,99914.63
2018-11-01T17:35:52.788Z,99928.01
2018-11-01T17:38:27.435Z,99947.47
2018-11-01T17:41:01.543Z,99947.47
2018-11-01T17:43:35.337Z,99950.17
2018-11-01T17:46:09.082Z,99949.34
2018-11-01T17:48:43.277Z,99948.82
2018-11-01T17:51:17.100Z,99952.38
2018-11-01T17:53:50.623Z,99956.95
2018-11-01T17:56:25.001Z,99959.30
2018-11-01T17:58:58.614Z,99958.13
2018-11-01T18:01:32.347Z,99964.54
2018-11-01T18:04:06.367Z,99971.31
2018-11-01T18:06:40.351Z,99974.53
2018-11-01T18:09:17.483Z,99975.56
2018-11-01T18:11:51.286Z,99975.20
2018-11-01T18:14:26.133Z,99980.61
2018-11-01T18:17:00.143Z,99982.16
2018-11-01T18:19:33.711Z,99980.29
2018-11-01T18:22:07.506Z,99986.89
2018-11-01T18:24:41.476Z,99983.02
2018-11-01T18:27:15.286Z,99994.17
2018-11-01T18:29:48.761Z,99991.45
2018-11-01T18:32:22.836Z,99992.81
2018-11-01T18:34:55.638Z,99992.81
2018-11-01T18:37:28.640Z,99989.42
2018-11-01T18:40:03.282Z,99995.19
2018-11-01T18:42:36.902Z,100004.66
2018-11-01T18:45:13.492Z,100002.27
2018-11-01T18:47:47.556Z,100002.27
2018-11-01T18:50:21.786Z,100024.44
2018-11-01T18:52:55.508Z,100029.67
2018-11-01T18:55:29.285Z,100029.67
2018-11-01T18:58:03.434Z,100058.09
2018-11-01T19:00:37.564Z,100061.64
2018-11-01T19:03:11.275Z,100065.05
2018-11-01T19:05:44.833Z,100063.18
2018-11-01T19:08:18.483Z,100055.70
2018-11-01T19:10:52.899Z,100055.70
2018-11-01T19:13:25.673Z,100067.58
2018-11-01T19:15:59.285Z,100064.70
2018-11-01T19:18:32.792Z,100073.14
2018-11-01T19:21:06.523Z,100091.06
2018-11-01T19:23:40.083Z,100091.06
2018-11-01T19:26:13.770Z,100099.03
2018-11-01T19:28:47.551Z,100087.52
2018-11-01T19:31:21.305Z,100087.52
2018-11-01T19:33:55.099Z,100089.41
2018-11-01T19:36:29.323Z,100093.12
2018-11-01T19:39:02.806Z,100093.64
2018-11-01T19:41:36.582Z,100095.16
2018-11-01T19:44:10.581Z,100095.16
2018-11-01T19:46:44.617Z,100098.35
2018-11-01T19:49:18.061Z,100103.95
2018-11-01T19:51:51.628Z,100116.97
2018-11-01T19:54:25.642Z,100129.84
2018-11-01T19:56:59.320Z,100128.13
2018-11-01T19:59:32.827Z,100142.35
2018-11-01T20:02:07.356Z,100146.41
2018-11-01T20:04:40.967Z,100146.41
2018-11-01T20:07:14.627Z,100148.43
2018-11-01T20:09:48.270Z,100162.48
2018-11-01T20:12:22.283Z,100174.47
2018-11-01T20:14:56.458Z,100183.25
2018-11-01T20:17:30.553Z,100180.22
2018-11-01T20:20:04.285Z,100169.72
2018-11-01T20:22:38.318Z,100165.33
2018-11-01T20:25:12.374Z,100168.88
2018-11-01T20:27:46.441Z,100171.59
2018-11-01T20:30:20.345Z,100179.53
2018-11-01T20:32:54.359Z,100182.72
2018-11-01T20:35:27.800Z,100195.07
2018-11-01T20:38:01.612Z,100191.34
2018-11-01T20:40:35.287Z,100191.34
2018-11-01T20:43:08.803Z,100210.65
2018-11-01T20:45:41.621Z,100210.83
2018-11-01T20:48:15.287Z,100207.25
2018-11-01T20:50:48.818Z,100193.72
2018-11-01T20:53:22.529Z,100195.41
2018-11-01T20:55:56.331Z,100195.41
2018-11-01T20:58:30.405Z,100197.78
2018-11-01T21:01:04.288Z,100195.44
2018-11-01T21:03:38.282Z,100189.33
2018-11-01T21:06:11.787Z,100199.13
2018-11-01T21:08:45.623Z,100186.78
2018-11-01T21:11:19.529Z,100186.78
2018-11-01T21:13:53.049Z,100204.19
2018-11-01T21:16:27.282Z,100198.44
2018-11-01T21:19:01.386Z,100208.94
2018-11-01T21:21:35.064Z,100204.52
2018-11-01T21:24:09.284Z,100210.29
2018-11-01T21:26:43.139Z,100210.44
2018-11-01T21:29:17.330Z,100212.63
2018-11-01T21:31:50.809Z,100212.81
2018-11-01T21:34:24.738Z,100211.94
2018-11-01T21:36:58.817Z,100211.94
2018-11-01T21:39:32.803Z,100217.20
2018-11-01T21:42:06.377Z,100217.20
2018-11-01T21:44:39.265Z,100218.19
2018-11-01T21:47:12.812Z,100218.19
2018-11-01T21:49:46.806Z,100231.02
2018-11-01T21:52:20.579Z,100235.08
2018-11-01T21:54:54.539Z,100235.08
2018-11-01T21:57:28.517Z,100239.95
2018-11-01T22:00:03.037Z,100252.12
2018-11-01T22:02:37.280Z,100259.39
2018-11-01T22:05:12.285Z,100254.49
2018-11-01T22:07:45.779Z,100263.12
2018-11-01T22:10:19.480Z,100267.00
2018-11-01T22:12:53.058Z,100267.00
2018-11-01T22:15:26.595Z,100271.05
2018-11-01T22:18:00.287Z,100270.72
2018-11-01T22:20:34.357Z,100269.38
2018-11-01T22:23:08.283Z,100257.02
2018-11-01T22:25:41.813Z,100267.69
2018-11-01T22:29:31.811Z,100279.53
2018-11-01T22:32:05.448Z,100286.73
2018-11-01T22:34:46.384Z,100286.73
2018-11-01T22:37:20.487Z,100315.68
2018-11-01T22:39:54.589Z,100326.50
2018-11-01T22:42:28.430Z,100342.55
2018-11-01T22:45:02.383Z,100332.75
2018-11-01T22:47:35.817Z,100342.08
2018-11-01T22:50:11.702Z,100358.98
2018-11-01T22:52:45.343Z,100358.98
2018-11-01T22:55:18.767Z,100359.99
2018-11-01T22:57:52.739Z,100356.97
2018-11-01T23:00:26.673Z,100356.97
2018-11-01T23:03:01.360Z,100364.44
2018-11-01T23:05:35.404Z,100371.05
2018-11-01T23:08:09.600Z,100371.89
2018-11-01T23:10:43.597Z,100369.52
2018-11-01T23:13:17.286Z,100371.06
2018-11-01T23:15:50.800Z,100366.16
2018-11-01T23:19:46.265Z,100370.23
2018-11-01T23:22:19.634Z,100375.63
2018-11-01T23:24:53.059Z,100374.28
2018-11-01T23:27:26.347Z,100371.23
2018-11-01T23:30:00.083Z,100370.88
2018-11-01T23:32:33.357Z,100375.63
2018-11-01T23:35:07.169Z,100378.48
2018-11-01T23:37:57.844Z,100386.97
2018-11-01T23:40:48.728Z,100380.01
2018-11-01T23:43:39.314Z,100380.01
2018-11-01T23:46:30.519Z,100366.48
2018-11-01T23:49:07.681Z,100347.55
2018-11-01T23:51:41.666Z,100351.60
2018-11-01T23:54:15.384Z,100356.17
2018-11-01T23:56:49.295Z,100351.23
2018-11-01T23:59:22.793Z,100345.17
